TFM - Tactical Decision Aid
ID: Runway Winds: CIG/VIS Threshold:

KDTW - Detroit Metro/Wayne, MI, US

Updated at: 1056 UTC 15 Jul 2020
Latest TAF at: 0905 UTC 15 Jul 2020

TAF Board

Time1053Z 15/11Z 15/12Z 15/13Z 15/14Z 15/15Z 15/16Z 15/17Z 15/18Z 15/19Z 15/20Z 15/21Z 15/22Z 15/23Z>>
Type OBS PRVL PRVL PRVL PRVL PRVL PRVL PRVL PRVL PRVL PRVL PRVL PRVL PRVL
VIS 10 >6 >6 >6 >6 >6 >6 >6 >6 >6 >6 >6 >6 >6
CIG 220 200 200 200 -- -- -- -- -- -- -- 200 200 200
Cover OVC BKN BKN BKN SCT SCT SCT SCT SCT SCT SCT OVC OVC OVC
FltCat VFR VFR VFR VFR VFR VFR VFR VFR VFR VFR VFR VFR VFR VFR
WX -- -- -- -- -- -- -- -- -- -- -- -- -- --
WDir 170 140 140 140 190 190 190 190 190 190 190 140 140 140
WSpd 3 3 3 3 7 7 7 7 7 7 7 7 7 7
WGst -- -- -- -- -- -- -- -- -- -- -- -- -- --

TDA Impact Legend

  None Marginal Slight Moderate High
Visibility (sm) >5 3≤X≤5 1≤X<3 0.5≤X<1 <0.5
Ceiling (100 ft) >30 10≤X≤30 4≤X<10 2≤X<4 <2
Wind Speed (kt) <15 15≤X<25 25≤X<30 ≥30
Wind Gust (kt) <15 15≤X<25 25≤X<35 ≥35
Weather No Wx Reported VCTS -TS,-FZRA TS,FZRA +TS,+FZRA
TAF
KDTW 150905Z 1509/1612 14003KT P6SM BKN200
  FM151400 19007KT P6SM SCT250
  FM152100 14007KT P6SM OVC200


METAR
KDTW 151053Z 17003KT 10SM FEW065 SCT090 OVC220 21/17 A3008 RMK AO2 SLP180 T02110172
KDTW 150953Z 17003KT 10SM FEW065 BKN090 OVC220 21/17 A3008 RMK AO2 SLP180 T02060167
KDTW 150853Z 00000KT 10SM FEW065 BKN100 OVC220 21/17 A3009 RMK AO2 SLP185 T02110172 58002
KDTW 150753Z 00000KT 10SM FEW065 SCT100 BKN220 22/18 A3009 RMK AO2 SLP184 T02170178

Radar Display
Forecast Discussion